sensor_id;sensor_type;location;lat;lon;timestamp;temperature;humidity
4985;DHT22;2509;49.902;8.600;2023-06-19T00:02:26;25.50;98.80
4985;DHT22;2509;49.902;8.600;2023-06-19T00:05:28;25.50;98.50
4985;DHT22;2509;49.902;8.600;2023-06-19T00:08:31;25.60;98.00
4985;DHT22;2509;49.902;8.600;2023-06-19T00:11:32;25.50;97.20
4985;DHT22;2509;49.902;8.600;2023-06-19T00:14:34;25.40;97.20
4985;DHT22;2509;49.902;8.600;2023-06-19T00:17:37;25.40;95.90
4985;DHT22;2509;49.902;8.600;2023-06-19T00:20:38;25.20;95.50
4985;DHT22;2509;49.902;8.600;2023-06-19T00:23:42;25.20;94.90
4985;DHT22;2509;49.902;8.600;2023-06-19T00:26:43;25.10;94.40
4985;DHT22;2509;49.902;8.600;2023-06-19T00:29:45;25.10;95.40
4985;DHT22;2509;49.902;8.600;2023-06-19T00:32:47;25.20;95.30
4985;DHT22;2509;49.902;8.600;2023-06-19T00:35:50;25.10;94.50
4985;DHT22;2509;49.902;8.600;2023-06-19T00:38:53;25.10;95.50
4985;DHT22;2509;49.902;8.600;2023-06-19T00:41:57;25.00;93.80
4985;DHT22;2509;49.902;8.600;2023-06-19T00:44:59;25.00;94.00
4985;DHT22;2509;49.902;8.600;2023-06-19T00:48:01;25.00;94.40
4985;DHT22;2509;49.902;8.600;2023-06-19T00:51:03;25.10;95.00
4985;DHT22;2509;49.902;8.600;2023-06-19T00:54:06;25.00;93.20
4985;DHT22;2509;49.902;8.600;2023-06-19T00:57:08;25.00;95.20
4985;DHT22;2509;49.902;8.600;2023-06-19T01:00:11;25.00;94.00
4985;DHT22;2509;49.902;8.600;2023-06-19T01:03:13;25.00;93.90
4985;DHT22;2509;49.902;8.600;2023-06-19T01:06:17;24.90;93.90
4985;DHT22;2509;49.902;8.600;2023-06-19T01:09:26;24.90;94.30
4985;DHT22;2509;49.902;8.600;2023-06-19T01:12:34;24.80;94.60
4985;DHT22;2509;49.902;8.600;2023-06-19T01:15:38;24.50;95.60
4985;DHT22;2509;49.902;8.600;2023-06-19T01:18:42;24.30;96.00
4985;DHT22;2509;49.902;8.600;2023-06-19T01:21:44;24.30;96.80
4985;DHT22;2509;49.902;8.600;2023-06-19T01:24:47;24.30;96.10
4985;DHT22;2509;49.902;8.600;2023-06-19T01:27:49;24.30;96.80
4985;DHT22;2509;49.902;8.600;2023-06-19T01:30:52;24.40;97.10
4985;DHT22;2509;49.902;8.600;2023-06-19T01:33:57;24.20;97.10
4985;DHT22;2509;49.902;8.600;2023-06-19T01:37:00;24.10;98.40
4985;DHT22;2509;49.902;8.600;2023-06-19T01:40:06;24.10;99.20
4985;DHT22;2509;49.902;8.600;2023-06-19T01:43:10;24.10;98.30
4985;DHT22;2509;49.902;8.600;2023-06-19T01:46:12;24.00;99.00
4985;DHT22;2509;49.902;8.600;2023-06-19T01:49:14;24.00;98.20
4985;DHT22;2509;49.902;8.600;2023-06-19T01:52:16;24.00;97.80
4985;DHT22;2509;49.902;8.600;2023-06-19T01:55:19;23.90;98.40
4985;DHT22;2509;49.902;8.600;2023-06-19T01:58:21;23.80;98.30
4985;DHT22;2509;49.902;8.600;2023-06-19T02:01:23;23.70;99.30
4985;DHT22;2509;49.902;8.600;2023-06-19T02:04:25;23.70;99.60
4985;DHT22;2509;49.902;8.600;2023-06-19T02:07:26;23.60;99.60
4985;DHT22;2509;49.902;8.600;2023-06-19T02:10:29;23.20;99.90
4985;DHT22;2509;49.902;8.600;2023-06-19T02:13:31;22.90;99.90
4985;DHT22;2509;49.902;8.600;2023-06-19T02:16:33;22.80;99.90
4985;DHT22;2509;49.902;8.600;2023-06-19T02:19:35;22.70;99.90
4985;DHT22;2509;49.902;8.600;2023-06-19T02:22:37;22.70;99.90
4985;DHT22;2509;49.902;8.600;2023-06-19T02:25:40;22.70;99.90
4985;DHT22;2509;49.902;8.600;2023-06-19T02:28:42;22.70;99.90
4985;DHT22;2509;49.902;8.600;2023-06-19T02:31:44;22.70;99.90
4985;DHT22;2509;49.902;8.600;2023-06-19T02:34:46;22.70;99.90
4985;DHT22;2509;49.902;8.600;2023-06-19T02:37:47;22.70;99.90
4985;DHT22;2509;49.902;8.600;2023-06-19T02:40:51;22.70;99.90
4985;DHT22;2509;49.902;8.600;2023-06-19T02:43:53;22.70;99.90
4985;DHT22;2509;49.902;8.600;2023-06-19T02:46:55;22.70;99.90
4985;DHT22;2509;49.902;8.600;2023-06-19T02:49:57;22.70;99.90
4985;DHT22;2509;49.902;8.600;2023-06-19T02:52:58;22.70;99.90
4985;DHT22;2509;49.902;8.600;2023-06-19T02:56:02;22.70;99.90
4985;DHT22;2509;49.902;8.600;2023-06-19T02:59:04;22.60;99.90
4985;DHT22;2509;49.902;8.600;2023-06-19T03:02:05;22.60;99.90
4985;DHT22;2509;49.902;8.600;2023-06-19T03:05:08;22.60;99.90
4985;DHT22;2509;49.902;8.600;2023-06-19T03:08:10;22.50;99.90
4985;DHT22;2509;49.902;8.600;2023-06-19T03:11:13;22.60;99.90
4985;DHT22;2509;49.902;8.600;2023-06-19T03:14:15;22.60;99.90
4985;DHT22;2509;49.902;8.600;2023-06-19T03:17:17;22.60;99.90
4985;DHT22;2509;49.902;8.600;2023-06-19T03:20:18;22.50;99.90
4985;DHT22;2509;49.902;8.600;2023-06-19T03:23:21;22.50;99.90
4985;DHT22;2509;49.902;8.600;2023-06-19T03:26:24;22.50;99.90
4985;DHT22;2509;49.902;8.600;2023-06-19T03:29:26;22.40;99.90
4985;DHT22;2509;49.902;8.600;2023-06-19T03:32:28;22.40;99.90
4985;DHT22;2509;49.902;8.600;2023-06-19T03:35:30;22.50;99.90
4985;DHT22;2509;49.902;8.600;2023-06-19T03:38:31;22.50;99.90
4985;DHT22;2509;49.902;8.600;2023-06-19T03:41:34;22.50;99.90
4985;DHT22;2509;49.902;8.600;2023-06-19T03:44:36;22.60;99.90
4985;DHT22;2509;49.902;8.600;2023-06-19T03:47:38;22.60;99.90
4985;DHT22;2509;49.902;8.600;2023-06-19T03:50:40;22.60;99.90
4985;DHT22;2509;49.902;8.600;2023-06-19T03:53:42;22.60;99.90
4985;DHT22;2509;49.902;8.600;2023-06-19T03:56:45;22.70;99.90
4985;DHT22;2509;49.902;8.600;2023-06-19T03:59:47;22.60;99.90
4985;DHT22;2509;49.902;8.600;2023-06-19T04:02:48;22.70;99.90
4985;DHT22;2509;49.902;8.600;2023-06-19T04:05:50;22.60;99.90
4985;DHT22;2509;49.902;8.600;2023-06-19T04:08:52;22.60;99.90
4985;DHT22;2509;49.902;8.600;2023-06-19T04:11:55;22.50;99.90
4985;DHT22;2509;49.902;8.600;2023-06-19T04:14:57;22.50;99.90
4985;DHT22;2509;49.902;8.600;2023-06-19T04:17:59;22.50;99.90
4985;DHT22;2509;49.902;8.600;2023-06-19T04:21:01;22.50;99.90
4985;DHT22;2509;49.902;8.600;2023-06-19T04:24:03;22.50;99.90
4985;DHT22;2509;49.902;8.600;2023-06-19T04:27:10;22.50;99.90
4985;DHT22;2509;49.902;8.600;2023-06-19T04:30:12;22.50;99.90
4985;DHT22;2509;49.902;8.600;2023-06-19T04:33:14;22.50;99.90
4985;DHT22;2509;49.902;8.600;2023-06-19T04:36:16;22.60;99.90
4985;DHT22;2509;49.902;8.600;2023-06-19T04:39:17;22.60;99.90
4985;DHT22;2509;49.902;8.600;2023-06-19T04:42:20;22.70;99.90
4985;DHT22;2509;49.902;8.600;2023-06-19T04:45:22;22.70;99.90
4985;DHT22;2509;49.902;8.600;2023-06-19T04:48:24;22.70;99.90
4985;DHT22;2509;49.902;8.600;2023-06-19T04:51:26;22.80;99.90
4985;DHT22;2509;49.902;8.600;2023-06-19T04:54:30;22.90;99.90
4985;DHT22;2509;49.902;8.600;2023-06-19T04:57:34;22.90;99.90
4985;DHT22;2509;49.902;8.600;2023-06-19T05:00:36;23.00;99.90
4985;DHT22;2509;49.902;8.600;2023-06-19T05:03:39;23.00;99.90
4985;DHT22;2509;49.902;8.600;2023-06-19T05:06:41;23.10;99.90
4985;DHT22;2509;49.902;8.600;2023-06-19T05:09:43;23.10;99.90
4985;DHT22;2509;49.902;8.600;2023-06-19T05:12:46;23.20;99.90
4985;DHT22;2509;49.902;8.600;2023-06-19T05:15:48;23.20;99.90
4985;DHT22;2509;49.902;8.600;2023-06-19T05:18:50;23.20;99.90
4985;DHT22;2509;49.902;8.600;2023-06-19T05:21:52;23.30;99.90
4985;DHT22;2509;49.902;8.600;2023-06-19T05:24:54;23.30;99.90
4985;DHT22;2509;49.902;8.600;2023-06-19T05:27:57;23.40;99.90
4985;DHT22;2509;49.902;8.600;2023-06-19T05:30:59;23.40;99.90
4985;DHT22;2509;49.902;8.600;2023-06-19T05:34:01;23.50;99.90
4985;DHT22;2509;49.902;8.600;2023-06-19T05:37:02;23.60;99.90
4985;DHT22;2509;49.902;8.600;2023-06-19T05:40:05;23.60;99.90
4985;DHT22;2509;49.902;8.600;2023-06-19T05:43:09;23.70;99.90
4985;DHT22;2509;49.902;8.600;2023-06-19T05:46:10;23.60;99.90
4985;DHT22;2509;49.902;8.600;2023-06-19T05:49:12;23.70;99.90
4985;DHT22;2509;49.902;8.600;2023-06-19T05:52:14;23.80;99.90
4985;DHT22;2509;49.902;8.600;2023-06-19T05:55:16;23.80;99.90
4985;DHT22;2509;49.902;8.600;2023-06-19T05:58:19;23.80;99.90
4985;DHT22;2509;49.902;8.600;2023-06-19T06:01:21;23.90;99.90
4985;DHT22;2509;49.902;8.600;2023-06-19T06:04:24;23.80;99.90
4985;DHT22;2509;49.902;8.600;2023-06-19T06:07:26;23.80;99.90
4985;DHT22;2509;49.902;8.600;2023-06-19T06:10:29;23.90;99.90
4985;DHT22;2509;49.902;8.600;2023-06-19T06:13:32;23.80;99.90
4985;DHT22;2509;49.902;8.600;2023-06-19T06:16:34;23.80;99.90
4985;DHT22;2509;49.902;8.600;2023-06-19T06:19:35;23.90;99.90
4985;DHT22;2509;49.902;8.600;2023-06-19T06:22:38;23.90;99.90
4985;DHT22;2509;49.902;8.600;2023-06-19T06:25:40;24.00;99.90
4985;DHT22;2509;49.902;8.600;2023-06-19T06:28:43;24.10;99.90
4985;DHT22;2509;49.902;8.600;2023-06-19T06:31:46;24.30;99.90
4985;DHT22;2509;49.902;8.600;2023-06-19T06:34:48;24.40;99.90
4985;DHT22;2509;49.902;8.600;2023-06-19T06:37:50;24.30;99.90
4985;DHT22;2509;49.902;8.600;2023-06-19T06:40:52;24.20;99.90
4985;DHT22;2509;49.902;8.600;2023-06-19T06:43:55;24.20;99.90
4985;DHT22;2509;49.902;8.600;2023-06-19T06:46:57;24.30;99.90
4985;DHT22;2509;49.902;8.600;2023-06-19T06:49:58;24.40;99.90
4985;DHT22;2509;49.902;8.600;2023-06-19T06:53:00;24.50;99.90
4985;DHT22;2509;49.902;8.600;2023-06-19T06:56:02;24.50;99.90
4985;DHT22;2509;49.902;8.600;2023-06-19T06:59:06;24.50;99.90
4985;DHT22;2509;49.902;8.600;2023-06-19T07:02:07;24.60;99.90
4985;DHT22;2509;49.902;8.600;2023-06-19T07:05:10;25.00;99.90
4985;DHT22;2509;49.902;8.600;2023-06-19T07:08:12;25.10;99.90
4985;DHT22;2509;49.902;8.600;2023-06-19T07:11:13;25.10;99.90
4985;DHT22;2509;49.902;8.600;2023-06-19T07:14:16;25.30;99.90
4985;DHT22;2509;49.902;8.600;2023-06-19T07:17:19;25.40;99.90
4985;DHT22;2509;49.902;8.600;2023-06-19T07:20:20;25.50;99.90
4985;DHT22;2509;49.902;8.600;2023-06-19T07:23:22;25.60;99.90
4985;DHT22;2509;49.902;8.600;2023-06-19T07:26:24;25.60;99.90
4985;DHT22;2509;49.902;8.600;2023-06-19T07:29:27;25.60;99.90
4985;DHT22;2509;49.902;8.600;2023-06-19T07:32:29;25.50;99.90
4985;DHT22;2509;49.902;8.600;2023-06-19T07:35:31;25.40;99.90
4985;DHT22;2509;49.902;8.600;2023-06-19T07:38:33;25.30;99.90
4985;DHT22;2509;49.902;8.600;2023-06-19T07:41:34;25.30;99.90
4985;DHT22;2509;49.902;8.600;2023-06-19T07:44:37;25.30;99.90
4985;DHT22;2509;49.902;8.600;2023-06-19T07:47:39;25.30;99.90
4985;DHT22;2509;49.902;8.600;2023-06-19T07:50:41;25.40;99.90
4985;DHT22;2509;49.902;8.600;2023-06-19T07:53:43;25.30;99.90
4985;DHT22;2509;49.902;8.600;2023-06-19T07:56:44;25.10;99.90
4985;DHT22;2509;49.902;8.600;2023-06-19T07:59:48;25.20;99.90
4985;DHT22;2509;49.902;8.600;2023-06-19T08:02:50;25.20;99.90
4985;DHT22;2509;49.902;8.600;2023-06-19T08:05:52;25.30;99.90
4985;DHT22;2509;49.902;8.600;2023-06-19T08:08:54;25.50;99.90
4985;DHT22;2509;49.902;8.600;2023-06-19T08:11:56;25.60;99.90
4985;DHT22;2509;49.902;8.600;2023-06-19T08:14:59;25.70;99.90
4985;DHT22;2509;49.902;8.600;2023-06-19T08:18:01;25.70;99.90
4985;DHT22;2509;49.902;8.600;2023-06-19T08:21:03;25.70;99.90
4985;DHT22;2509;49.902;8.600;2023-06-19T08:24:05;25.70;99.90
4985;DHT22;2509;49.902;8.600;2023-06-19T08:27:07;25.60;99.90
4985;DHT22;2509;49.902;8.600;2023-06-19T08:30:10;25.60;99.90
4985;DHT22;2509;49.902;8.600;2023-06-19T08:33:13;25.60;99.90
4985;DHT22;2509;49.902;8.600;2023-06-19T08:36:15;25.80;99.90
4985;DHT22;2509;49.902;8.600;2023-06-19T08:39:17;26.00;99.90
4985;DHT22;2509;49.902;8.600;2023-06-19T08:42:20;26.40;99.90
4985;DHT22;2509;49.902;8.600;2023-06-19T08:45:26;26.70;99.90
4985;DHT22;2509;49.902;8.600;2023-06-19T08:48:28;26.90;99.90
4985;DHT22;2509;49.902;8.600;2023-06-19T08:51:30;26.90;99.90
4985;DHT22;2509;49.902;8.600;2023-06-19T08:54:32;26.90;99.90
4985;DHT22;2509;49.902;8.600;2023-06-19T08:57:35;26.80;99.90
4985;DHT22;2509;49.902;8.600;2023-06-19T09:00:38;27.00;99.90
4985;DHT22;2509;49.902;8.600;2023-06-19T09:03:40;27.20;99.90
4985;DHT22;2509;49.902;8.600;2023-06-19T09:06:52;27.20;99.90
4985;DHT22;2509;49.902;8.600;2023-06-19T09:09:54;27.10;99.90
4985;DHT22;2509;49.902;8.600;2023-06-19T09:12:59;27.40;99.90
4985;DHT22;2509;49.902;8.600;2023-06-19T09:16:05;27.50;99.90
4985;DHT22;2509;49.902;8.600;2023-06-19T09:19:07;27.60;99.90
4985;DHT22;2509;49.902;8.600;2023-06-19T09:22:09;27.60;99.90
4985;DHT22;2509;49.902;8.600;2023-06-19T09:25:10;27.50;99.90
4985;DHT22;2509;49.902;8.600;2023-06-19T09:28:17;27.40;99.90
4985;DHT22;2509;49.902;8.600;2023-06-19T09:31:31;27.30;99.90
4985;DHT22;2509;49.902;8.600;2023-06-19T09:34:33;27.40;99.90
4985;DHT22;2509;49.902;8.600;2023-06-19T09:37:36;27.40;99.90
4985;DHT22;2509;49.902;8.600;2023-06-19T09:40:39;27.70;99.60
4985;DHT22;2509;49.902;8.600;2023-06-19T09:43:43;27.90;99.10
4985;DHT22;2509;49.902;8.600;2023-06-19T09:46:47;28.30;98.30
4985;DHT22;2509;49.902;8.600;2023-06-19T09:49:54;28.50;97.80
4985;DHT22;2509;49.902;8.600;2023-06-19T09:52:59;28.60;97.40
4985;DHT22;2509;49.902;8.600;2023-06-19T09:56:01;28.80;97.20
4985;DHT22;2509;49.902;8.600;2023-06-19T09:59:04;28.70;95.90
4985;DHT22;2509;49.902;8.600;2023-06-19T10:02:11;28.70;96.60
4985;DHT22;2509;49.902;8.600;2023-06-19T10:05:14;29.00;95.80
4985;DHT22;2509;49.902;8.600;2023-06-19T10:08:29;29.10;95.90
4985;DHT22;2509;49.902;8.600;2023-06-19T10:11:44;29.10;95.40
4985;DHT22;2509;49.902;8.600;2023-06-19T10:14:47;29.00;95.10
4985;DHT22;2509;49.902;8.600;2023-06-19T10:17:52;29.10;95.40
4985;DHT22;2509;49.902;8.600;2023-06-19T10:20:54;29.10;95.70
4985;DHT22;2509;49.902;8.600;2023-06-19T10:23:58;29.10;95.60
4985;DHT22;2509;49.902;8.600;2023-06-19T10:27:03;29.10;95.00
4985;DHT22;2509;49.902;8.600;2023-06-19T10:30:16;29.10;94.40
4985;DHT22;2509;49.902;8.600;2023-06-19T10:33:20;28.80;95.90
4985;DHT22;2509;49.902;8.600;2023-06-19T10:36:23;28.90;95.50
4985;DHT22;2509;49.902;8.600;2023-06-19T10:39:28;28.80;95.10
4985;DHT22;2509;49.902;8.600;2023-06-19T10:42:30;28.60;95.10
4985;DHT22;2509;49.902;8.600;2023-06-19T10:45:33;28.50;95.60
4985;DHT22;2509;49.902;8.600;2023-06-19T10:48:41;28.40;95.80
4985;DHT22;2509;49.902;8.600;2023-06-19T10:51:45;28.40;96.00
4985;DHT22;2509;49.902;8.600;2023-06-19T10:55:03;28.40;95.80
4985;DHT22;2509;49.902;8.600;2023-06-19T10:58:13;28.40;95.80
4985;DHT22;2509;49.902;8.600;2023-06-19T11:01:33;28.30;95.90
4985;DHT22;2509;49.902;8.600;2023-06-19T11:05:05;28.20;96.10
4985;DHT22;2509;49.902;8.600;2023-06-19T11:08:40;28.20;95.50
4985;DHT22;2509;49.902;8.600;2023-06-19T11:11:48;28.20;95.50
4985;DHT22;2509;49.902;8.600;2023-06-19T11:14:54;28.30;95.70
4985;DHT22;2509;49.902;8.600;2023-06-19T11:18:01;28.50;95.40
4985;DHT22;2509;49.902;8.600;2023-06-19T11:21:08;28.60;94.60
4985;DHT22;2509;49.902;8.600;2023-06-19T11:24:25;28.80;93.90
4985;DHT22;2509;49.902;8.600;2023-06-19T11:27:31;29.00;93.60
4985;DHT22;2509;49.902;8.600;2023-06-19T11:30:33;29.30;93.00
4985;DHT22;2509;49.902;8.600;2023-06-19T11:33:35;29.50;92.30
4985;DHT22;2509;49.902;8.600;2023-06-19T11:36:49;29.60;91.20
4985;DHT22;2509;49.902;8.600;2023-06-19T11:39:54;29.70;90.10
4985;DHT22;2509;49.902;8.600;2023-06-19T11:43:02;29.60;90.80
4985;DHT22;2509;49.902;8.600;2023-06-19T11:46:09;29.50;89.60
4985;DHT22;2509;49.902;8.600;2023-06-19T11:49:27;29.40;89.60
4985;DHT22;2509;49.902;8.600;2023-06-19T11:52:37;29.60;89.60
4985;DHT22;2509;49.902;8.600;2023-06-19T11:55:38;29.90;88.50
4985;DHT22;2509;49.902;8.600;2023-06-19T11:58:40;30.20;88.70
4985;DHT22;2509;49.902;8.600;2023-06-19T12:01:42;30.60;87.70
4985;DHT22;2509;49.902;8.600;2023-06-19T12:04:44;31.10;86.40
4985;DHT22;2509;49.902;8.600;2023-06-19T12:07:47;31.40;85.70
4985;DHT22;2509;49.902;8.600;2023-06-19T12:10:49;31.60;85.60
4985;DHT22;2509;49.902;8.600;2023-06-19T12:13:52;32.20;84.90
4985;DHT22;2509;49.902;8.600;2023-06-19T12:16:56;32.50;83.50
4985;DHT22;2509;49.902;8.600;2023-06-19T12:19:58;32.20;81.00
4985;DHT22;2509;49.902;8.600;2023-06-19T12:23:01;32.10;82.70
4985;DHT22;2509;49.902;8.600;2023-06-19T12:26:03;32.80;81.80
4985;DHT22;2509;49.902;8.600;2023-06-19T12:29:05;33.40;81.50
4985;DHT22;2509;49.902;8.600;2023-06-19T12:32:07;34.00;80.10
4985;DHT22;2509;49.902;8.600;2023-06-19T12:35:09;33.90;79.60
4985;DHT22;2509;49.902;8.600;2023-06-19T12:38:12;32.90;81.30
4985;DHT22;2509;49.902;8.600;2023-06-19T12:41:14;32.80;82.10
4985;DHT22;2509;49.902;8.600;2023-06-19T12:44:16;33.10;81.60
4985;DHT22;2509;49.902;8.600;2023-06-19T12:47:18;32.70;81.60
4985;DHT22;2509;49.902;8.600;2023-06-19T12:50:21;32.90;82.00
4985;DHT22;2509;49.902;8.600;2023-06-19T12:53:24;33.40;81.20
4985;DHT22;2509;49.902;8.600;2023-06-19T12:56:29;33.60;80.70
4985;DHT22;2509;49.902;8.600;2023-06-19T12:59:31;33.90;79.80
4985;DHT22;2509;49.902;8.600;2023-06-19T13:02:34;33.60;80.10
4985;DHT22;2509;49.902;8.600;2023-06-19T13:05:35;33.10;78.80
4985;DHT22;2509;49.902;8.600;2023-06-19T13:08:39;33.10;78.30
4985;DHT22;2509;49.902;8.600;2023-06-19T13:11:40;33.00;77.60
4985;DHT22;2509;49.902;8.600;2023-06-19T13:14:42;32.90;79.00
4985;DHT22;2509;49.902;8.600;2023-06-19T13:17:44;33.20;77.80
4985;DHT22;2509;49.902;8.600;2023-06-19T13:20:46;33.60;77.80
4985;DHT22;2509;49.902;8.600;2023-06-19T13:23:50;33.60;79.30
4985;DHT22;2509;49.902;8.600;2023-06-19T13:26:51;33.20;79.90
4985;DHT22;2509;49.902;8.600;2023-06-19T13:29:53;33.60;79.50
4985;DHT22;2509;49.902;8.600;2023-06-19T13:32:55;33.90;78.50
4985;DHT22;2509;49.902;8.600;2023-06-19T13:35:57;34.20;79.20
4985;DHT22;2509;49.902;8.600;2023-06-19T13:39:00;35.20;74.60
4985;DHT22;2509;49.902;8.600;2023-06-19T13:42:04;34.90;74.10
4985;DHT22;2509;49.902;8.600;2023-06-19T13:45:07;35.00;73.80
4985;DHT22;2509;49.902;8.600;2023-06-19T13:48:08;34.90;74.00
4985;DHT22;2509;49.902;8.600;2023-06-19T13:51:10;35.00;73.30
4985;DHT22;2509;49.902;8.600;2023-06-19T13:54:13;35.30;73.10
4985;DHT22;2509;49.902;8.600;2023-06-19T13:57:15;36.20;73.40
4985;DHT22;2509;49.902;8.600;2023-06-19T14:00:17;36.00;73.00
4985;DHT22;2509;49.902;8.600;2023-06-19T14:03:19;35.30;74.50
4985;DHT22;2509;49.902;8.600;2023-06-19T14:06:21;34.20;75.30
4985;DHT22;2509;49.902;8.600;2023-06-19T14:09:24;34.00;76.30
4985;DHT22;2509;49.902;8.600;2023-06-19T14:12:26;33.50;76.00
4985;DHT22;2509;49.902;8.600;2023-06-19T14:15:28;33.90;77.30
4985;DHT22;2509;49.902;8.600;2023-06-19T14:18:30;34.50;76.60
4985;DHT22;2509;49.902;8.600;2023-06-19T14:21:32;35.00;75.00
4985;DHT22;2509;49.902;8.600;2023-06-19T14:24:35;35.00;73.50
4985;DHT22;2509;49.902;8.600;2023-06-19T14:27:37;34.50;73.00
4985;DHT22;2509;49.902;8.600;2023-06-19T14:30:39;34.30;73.40
4985;DHT22;2509;49.902;8.600;2023-06-19T14:33:41;34.20;74.40
4985;DHT22;2509;49.902;8.600;2023-06-19T14:36:42;34.50;74.30
4985;DHT22;2509;49.902;8.600;2023-06-19T14:39:46;34.30;74.10
4985;DHT22;2509;49.902;8.600;2023-06-19T14:42:48;33.80;74.80
4985;DHT22;2509;49.902;8.600;2023-06-19T14:45:50;33.90;75.00
4985;DHT22;2509;49.902;8.600;2023-06-19T14:48:52;35.00;74.50
4985;DHT22;2509;49.902;8.600;2023-06-19T14:51:54;35.90;72.80
4985;DHT22;2509;49.902;8.600;2023-06-19T14:54:58;35.80;72.20
4985;DHT22;2509;49.902;8.600;2023-06-19T14:58:01;35.20;73.10
4985;DHT22;2509;49.902;8.600;2023-06-19T15:01:03;34.40;74.20
4985;DHT22;2509;49.902;8.600;2023-06-19T15:04:05;33.80;75.80
4985;DHT22;2509;49.902;8.600;2023-06-19T15:07:08;33.30;77.40
4985;DHT22;2509;49.902;8.600;2023-06-19T15:10:11;32.90;78.90
4985;DHT22;2509;49.902;8.600;2023-06-19T15:13:13;32.80;78.90
4985;DHT22;2509;49.902;8.600;2023-06-19T15:16:16;32.40;80.30
4985;DHT22;2509;49.902;8.600;2023-06-19T15:19:19;32.40;80.60
4985;DHT22;2509;49.902;8.600;2023-06-19T15:22:21;32.30;80.80
4985;DHT22;2509;49.902;8.600;2023-06-19T15:25:25;32.20;81.10
4985;DHT22;2509;49.902;8.600;2023-06-19T15:28:27;32.10;80.90
4985;DHT22;2509;49.902;8.600;2023-06-19T15:31:29;31.90;81.50
4985;DHT22;2509;49.902;8.600;2023-06-19T15:34:30;31.80;82.00
4985;DHT22;2509;49.902;8.600;2023-06-19T15:37:32;31.90;82.60
4985;DHT22;2509;49.902;8.600;2023-06-19T15:40:36;31.90;81.80
4985;DHT22;2509;49.902;8.600;2023-06-19T15:43:38;31.50;82.70
4985;DHT22;2509;49.902;8.600;2023-06-19T15:46:40;31.40;82.50
4985;DHT22;2509;49.902;8.600;2023-06-19T15:49:42;31.40;82.70
4985;DHT22;2509;49.902;8.600;2023-06-19T15:52:44;31.20;83.30
4985;DHT22;2509;49.902;8.600;2023-06-19T15:55:48;31.00;83.90
4985;DHT22;2509;49.902;8.600;2023-06-19T15:58:50;31.10;84.00
4985;DHT22;2509;49.902;8.600;2023-06-19T16:01:52;31.10;84.20
4985;DHT22;2509;49.902;8.600;2023-06-19T16:04:54;30.90;84.60
4985;DHT22;2509;49.902;8.600;2023-06-19T16:07:56;31.10;84.30
4985;DHT22;2509;49.902;8.600;2023-06-19T16:10:59;31.10;84.30
4985;DHT22;2509;49.902;8.600;2023-06-19T16:14:03;31.00;84.80
4985;DHT22;2509;49.902;8.600;2023-06-19T16:17:05;30.80;85.00
4985;DHT22;2509;49.902;8.600;2023-06-19T16:20:09;30.70;85.50
4985;DHT22;2509;49.902;8.600;2023-06-19T16:23:11;30.70;85.40
4985;DHT22;2509;49.902;8.600;2023-06-19T16:26:16;30.70;85.00
4985;DHT22;2509;49.902;8.600;2023-06-19T16:29:18;30.60;85.50
4985;DHT22;2509;49.902;8.600;2023-06-19T16:32:19;30.50;85.80
4985;DHT22;2509;49.902;8.600;2023-06-19T16:35:21;30.50;86.20
4985;DHT22;2509;49.902;8.600;2023-06-19T16:38:23;30.40;86.10
4985;DHT22;2509;49.902;8.600;2023-06-19T16:41:27;30.40;86.20
4985;DHT22;2509;49.902;8.600;2023-06-19T16:44:28;30.40;86.60
4985;DHT22;2509;49.902;8.600;2023-06-19T16:47:30;30.50;86.40
4985;DHT22;2509;49.902;8.600;2023-06-19T16:50:32;30.60;86.30
4985;DHT22;2509;49.902;8.600;2023-06-19T16:53:35;30.70;86.30
4985;DHT22;2509;49.902;8.600;2023-06-19T16:56:39;30.80;87.00
4985;DHT22;2509;49.902;8.600;2023-06-19T16:59:41;30.70;86.30
4985;DHT22;2509;49.902;8.600;2023-06-19T17:02:42;30.20;86.90
4985;DHT22;2509;49.902;8.600;2023-06-19T17:05:45;30.10;87.80
4985;DHT22;2509;49.902;8.600;2023-06-19T17:08:48;30.20;87.80
4985;DHT22;2509;49.902;8.600;2023-06-19T17:11:52;30.20;87.70
4985;DHT22;2509;49.902;8.600;2023-06-19T17:14:54;30.30;87.80
4985;DHT22;2509;49.902;8.600;2023-06-19T17:17:57;30.20;87.90
4985;DHT22;2509;49.902;8.600;2023-06-19T17:20:59;30.10;88.10
4985;DHT22;2509;49.902;8.600;2023-06-19T17:24:01;30.10;87.70
4985;DHT22;2509;49.902;8.600;2023-06-19T17:27:05;30.10;88.00
4985;DHT22;2509;49.902;8.600;2023-06-19T17:30:08;30.00;87.90
4985;DHT22;2509;49.902;8.600;2023-06-19T17:33:12;30.00;88.10
4985;DHT22;2509;49.902;8.600;2023-06-19T17:36:14;29.90;88.50
4985;DHT22;2509;49.902;8.600;2023-06-19T17:39:16;29.80;88.90
4985;DHT22;2509;49.902;8.600;2023-06-19T17:42:19;29.90;88.60
4985;DHT22;2509;49.902;8.600;2023-06-19T17:45:21;29.80;89.10
4985;DHT22;2509;49.902;8.600;2023-06-19T17:48:23;29.70;89.50
4985;DHT22;2509;49.902;8.600;2023-06-19T17:51:25;29.70;90.20
4985;DHT22;2509;49.902;8.600;2023-06-19T17:54:27;29.70;90.40
4985;DHT22;2509;49.902;8.600;2023-06-19T17:57:30;29.60;90.50
4985;DHT22;2509;49.902;8.600;2023-06-19T18:00:32;29.60;90.70
4985;DHT22;2509;49.902;8.600;2023-06-19T18:03:34;29.50;90.60
4985;DHT22;2509;49.902;8.600;2023-06-19T18:06:36;29.50;90.60
4985;DHT22;2509;49.902;8.600;2023-06-19T18:09:38;29.50;90.40
4985;DHT22;2509;49.902;8.600;2023-06-19T18:12:42;29.50;90.30
4985;DHT22;2509;49.902;8.600;2023-06-19T18:15:44;29.40;90.50
4985;DHT22;2509;49.902;8.600;2023-06-19T18:18:46;29.40;90.50
4985;DHT22;2509;49.902;8.600;2023-06-19T18:21:49;29.20;90.40
4985;DHT22;2509;49.902;8.600;2023-06-19T18:24:51;29.10;90.80
4985;DHT22;2509;49.902;8.600;2023-06-19T18:27:55;29.10;91.10
4985;DHT22;2509;49.902;8.600;2023-06-19T18:30:57;29.10;90.80
4985;DHT22;2509;49.902;8.600;2023-06-19T18:33:59;29.10;90.80
4985;DHT22;2509;49.902;8.600;2023-06-19T18:37:01;29.10;90.90
4985;DHT22;2509;49.902;8.600;2023-06-19T18:40:03;29.00;90.80
4985;DHT22;2509;49.902;8.600;2023-06-19T18:43:07;28.80;91.40
4985;DHT22;2509;49.902;8.600;2023-06-19T18:46:09;28.80;91.60
4985;DHT22;2509;49.902;8.600;2023-06-19T18:49:11;28.80;91.90
4985;DHT22;2509;49.902;8.600;2023-06-19T18:52:13;28.70;92.00
4985;DHT22;2509;49.902;8.600;2023-06-19T18:55:15;28.60;91.50
4985;DHT22;2509;49.902;8.600;2023-06-19T18:58:19;28.50;91.80
4985;DHT22;2509;49.902;8.600;2023-06-19T19:01:22;28.50;91.90
4985;DHT22;2509;49.902;8.600;2023-06-19T19:04:24;28.50;92.80
4985;DHT22;2509;49.902;8.600;2023-06-19T19:07:27;28.50;92.90
4985;DHT22;2509;49.902;8.600;2023-06-19T19:10:29;28.40;92.40
4985;DHT22;2509;49.902;8.600;2023-06-19T19:13:33;28.30;92.40
4985;DHT22;2509;49.902;8.600;2023-06-19T19:16:35;28.30;93.10
4985;DHT22;2509;49.902;8.600;2023-06-19T19:19:37;28.30;93.50
4985;DHT22;2509;49.902;8.600;2023-06-19T19:22:38;28.30;93.30
4985;DHT22;2509;49.902;8.600;2023-06-19T19:25:40;28.30;93.70
4985;DHT22;2509;49.902;8.600;2023-06-19T19:28:44;28.30;94.60
4985;DHT22;2509;49.902;8.600;2023-06-19T19:31:45;28.20;95.20
4985;DHT22;2509;49.902;8.600;2023-06-19T19:34:47;28.20;95.20
4985;DHT22;2509;49.902;8.600;2023-06-19T19:37:49;28.10;95.50
4985;DHT22;2509;49.902;8.600;2023-06-19T19:40:51;28.00;95.70
4985;DHT22;2509;49.902;8.600;2023-06-19T19:43:54;27.90;96.70
4985;DHT22;2509;49.902;8.600;2023-06-19T19:46:56;27.80;96.70
4985;DHT22;2509;49.902;8.600;2023-06-19T19:49:58;27.60;97.20
4985;DHT22;2509;49.902;8.600;2023-06-19T19:52:59;27.40;98.00
4985;DHT22;2509;49.902;8.600;2023-06-19T19:56:01;27.40;98.30